createdAt,value
2023-05-02T00:00:17.646Z,101161.12
2023-05-02T00:03:08.559Z,101168.80
2023-05-02T00:05:40.163Z,101173.66
2023-05-02T00:08:10.513Z,101171.32
2023-05-02T00:10:40.173Z,101178.80
2023-05-02T00:13:10.929Z,101176.69
2023-05-02T00:15:41.289Z,101181.52
2023-05-02T00:18:12.136Z,101183.70
2023-05-02T00:20:42.943Z,101176.25
2023-05-02T00:23:13.274Z,101170.63
2023-05-02T00:25:46.260Z,101183.45
2023-05-02T00:28:16.380Z,101178.48
2023-05-02T00:30:47.385Z,101183.49
2023-05-02T00:33:19.687Z,101177.53
2023-05-02T00:35:50.824Z,101175.56
2023-05-02T00:38:20.943Z,101180.88
2023-05-02T00:40:53.030Z,101184.03
2023-05-02T00:43:23.223Z,101182.56
2023-05-02T00:45:53.170Z,101182.06
2023-05-02T00:48:25.519Z,101182.41
2023-05-02T00:50:56.857Z,101190.72
2023-05-02T00:53:27.177Z,101178.13
2023-05-02T00:55:59.539Z,101186.44
2023-05-02T00:58:30.280Z,101180.66
2023-05-02T01:01:08.685Z,101185.47
2023-05-02T01:03:47.429Z,101186.00
2023-05-02T01:06:29.084Z,101182.37
2023-05-02T01:09:13.353Z,101187.02
2023-05-02T01:11:49.112Z,101193.66
2023-05-02T01:14:21.777Z,101188.84
2023-05-02T01:16:53.541Z,101187.38
2023-05-02T01:19:31.654Z,101193.17
2023-05-02T01:22:05.221Z,101185.73
2023-05-02T01:24:41.266Z,101186.22
2023-05-02T01:27:25.131Z,101185.75
2023-05-02T01:29:58.599Z,101177.28
2023-05-02T01:32:32.834Z,101187.23
2023-05-02T01:35:05.318Z,101186.91
2023-05-02T01:37:37.496Z,101183.59
2023-05-02T01:40:12.243Z,101188.41
2023-05-02T01:42:44.277Z,101184.92
2023-05-02T01:45:17.057Z,101182.45
2023-05-02T01:47:48.085Z,101180.13
2023-05-02T01:50:20.558Z,101187.24
2023-05-02T01:52:54.190Z,101192.06
2023-05-02T01:55:25.905Z,101192.06
2023-05-02T01:57:57.207Z,101192.39
2023-05-02T02:00:29.720Z,101188.09
2023-05-02T02:03:02.074Z,101193.54
2023-05-02T02:05:34.030Z,101186.77
2023-05-02T02:08:06.783Z,101184.26
2023-05-02T02:10:41.438Z,101188.09
2023-05-02T02:13:17.920Z,101193.53
2023-05-02T02:15:51.053Z,101187.57
2023-05-02T02:18:26.147Z,101189.56
2023-05-02T02:21:00.287Z,101193.38
2023-05-02T02:23:33.885Z,101192.72
2023-05-02T02:26:07.841Z,101191.06
2023-05-02T02:28:38.419Z,101191.39
2023-05-02T02:31:09.168Z,101190.55
2023-05-02T02:33:40.509Z,101197.69
2023-05-02T02:36:19.426Z,101191.72
2023-05-02T02:38:57.677Z,101195.36
2023-05-02T02:41:40.548Z,101193.85
2023-05-02T02:44:27.664Z,101187.89
2023-05-02T02:47:06.588Z,101196.16
2023-05-02T02:49:50.938Z,101198.81
2023-05-02T02:52:28.903Z,101200.80
2023-05-02T02:55:07.048Z,101209.04
2023-05-02T02:57:47.612Z,101214.66
2023-05-02T03:00:22.212Z,101213.19
2023-05-02T03:02:56.544Z,101207.37
2023-05-02T03:05:29.629Z,101205.88
2023-05-02T03:08:01.597Z,101210.34
2023-05-02T03:10:33.185Z,101214.16
2023-05-02T03:13:04.084Z,101211.66
2023-05-02T03:16:11.925Z,101220.59
2023-05-02T03:18:43.850Z,101226.20
2023-05-02T03:21:14.408Z,101223.73
2023-05-02T03:23:47.367Z,101228.36
2023-05-02T03:26:19.323Z,101224.88
2023-05-02T03:28:49.852Z,101223.39
2023-05-02T03:31:21.032Z,101227.84
2023-05-02T03:33:52.748Z,101239.42
2023-05-02T03:36:23.709Z,101226.36
2023-05-02T03:38:56.267Z,101237.77
2023-05-02T03:41:27.821Z,101241.41
2023-05-02T03:44:02.848Z,101237.94
2023-05-02T03:46:33.884Z,101238.75
2023-05-02T03:49:05.537Z,101251.18
2023-05-02T03:51:36.478Z,101246.70
2023-05-02T03:54:09.460Z,101257.29
2023-05-02T03:56:42.909Z,101254.64
2023-05-02T03:59:19.124Z,101262.44
2023-05-02T04:01:51.326Z,101263.11
2023-05-02T04:04:24.753Z,101265.59
2023-05-02T04:06:57.255Z,101267.10
2023-05-02T04:09:27.788Z,101258.98
2023-05-02T04:12:02.815Z,101267.45
2023-05-02T04:14:34.177Z,101271.59
2023-05-02T04:17:06.321Z,101272.92
2023-05-02T04:19:41.984Z,101267.30
2023-05-02T04:22:12.730Z,101274.61
2023-05-02T04:24:47.952Z,101265.23
2023-05-02T04:27:19.096Z,101272.21
2023-05-02T04:29:50.648Z,101276.69
2023-05-02T04:32:22.602Z,101276.55
2023-05-02T04:34:53.742Z,101273.73
2023-05-02T04:37:25.914Z,101269.77
2023-05-02T04:39:56.231Z,101276.59
2023-05-02T04:42:29.428Z,101272.61
2023-05-02T04:45:15.102Z,101275.59
2023-05-02T04:47:47.745Z,101268.94
2023-05-02T04:50:20.051Z,101276.22
2023-05-02T04:52:50.377Z,101273.86
2023-05-02T04:55:22.950Z,101274.16
2023-05-02T04:57:54.504Z,101267.95
2023-05-02T05:00:25.848Z,101278.86
2023-05-02T05:02:59.275Z,101275.47
2023-05-02T05:05:31.639Z,101279.92
2023-05-02T05:08:02.963Z,101288.80
2023-05-02T05:10:36.968Z,101289.90
2023-05-02T05:13:08.121Z,101293.61
2023-05-02T05:15:38.639Z,101297.52
2023-05-02T05:18:10.015Z,101301.25
2023-05-02T05:20:40.919Z,101302.48
2023-05-02T05:23:12.477Z,101299.19
2023-05-02T05:25:43.544Z,101302.06
2023-05-02T05:28:17.940Z,101299.43
2023-05-02T05:30:48.776Z,101301.64
2023-05-02T05:33:24.982Z,101306.31
2023-05-02T05:35:56.796Z,101297.89
2023-05-02T05:38:27.725Z,101300.73
2023-05-02T05:40:58.464Z,101302.75
2023-05-02T05:43:30.418Z,101302.27
2023-05-02T05:46:01.558Z,101304.25
2023-05-02T05:48:33.336Z,101302.57
2023-05-02T05:51:08.328Z,101299.20
2023-05-02T05:53:38.481Z,101303.48
2023-05-02T05:56:11.667Z,101311.40
2023-05-02T05:58:44.290Z,101311.55
2023-05-02T06:01:16.607Z,101314.36
2023-05-02T06:03:47.616Z,101309.11
2023-05-02T06:06:19.513Z,101313.53
2023-05-02T06:08:50.421Z,101308.91
2023-05-02T06:11:20.563Z,101314.73
2023-05-02T06:13:51.714Z,101310.48
2023-05-02T06:16:22.776Z,101318.56
2023-05-02T06:18:54.808Z,101323.57
2023-05-02T06:21:24.719Z,101318.89
2023-05-02T06:23:55.249Z,101312.80
2023-05-02T06:26:25.575Z,101313.63
2023-05-02T06:28:56.921Z,101319.85
2023-05-02T06:31:27.077Z,101310.98
2023-05-02T06:33:57.761Z,101314.70
2023-05-02T06:36:28.499Z,101315.55
2023-05-02T06:38:59.037Z,101309.95
2023-05-02T06:41:29.356Z,101311.39
2023-05-02T06:44:00.102Z,101307.03
2023-05-02T06:46:31.262Z,101307.03
2023-05-02T06:49:01.752Z,101299.98
2023-05-02T06:51:32.482Z,101302.61
2023-05-02T06:54:03.212Z,101307.72
2023-05-02T06:56:33.957Z,101302.72
2023-05-02T06:59:04.891Z,101301.00
2023-05-02T07:01:35.752Z,101295.98
2023-05-02T07:04:06.857Z,101301.70
2023-05-02T07:06:37.741Z,101302.05
2023-05-02T07:09:08.438Z,101304.50
2023-05-02T07:11:39.168Z,101300.70
2023-05-02T07:14:09.900Z,101296.51
2023-05-02T07:16:40.731Z,101287.73
2023-05-02T07:19:11.570Z,101293.19
2023-05-02T07:21:42.294Z,101288.73
2023-05-02T07:24:13.036Z,101295.26
2023-05-02T07:26:43.766Z,101296.16
2023-05-02T07:29:14.920Z,101291.09
2023-05-02T07:31:45.548Z,101297.16
2023-05-02T07:34:15.756Z,101300.97
2023-05-02T07:36:46.690Z,101302.31
2023-05-02T07:39:17.430Z,101300.70
2023-05-02T07:41:48.160Z,101300.78
2023-05-02T07:44:18.695Z,101307.27
2023-05-02T07:46:49.058Z,101310.83
2023-05-02T07:49:19.745Z,101303.61
2023-05-02T07:51:50.282Z,101300.34
2023-05-02T07:54:22.071Z,101306.59
2023-05-02T07:56:52.568Z,101309.33
2023-05-02T07:59:22.678Z,101302.30
2023-05-02T08:01:53.212Z,101309.09
2023-05-02T08:04:24.441Z,101311.81
2023-05-02T08:06:55.608Z,101318.14
2023-05-02T08:09:26.646Z,101320.58
2023-05-02T08:11:57.371Z,101317.88
2023-05-02T08:14:28.105Z,101314.92
2023-05-02T08:16:58.835Z,101314.42
2023-05-02T08:19:29.570Z,101316.84
2023-05-02T08:22:00.953Z,101303.86
2023-05-02T08:24:31.477Z,101307.67
2023-05-02T08:27:02.974Z,101307.72
2023-05-02T08:29:33.315Z,101314.53
2023-05-02T08:32:04.309Z,101300.23
2023-05-02T08:34:35.402Z,101307.73
2023-05-02T08:37:10.238Z,101305.27
2023-05-02T08:39:40.958Z,101306.34
2023-05-02T08:42:11.896Z,101307.61
2023-05-02T08:44:42.427Z,101313.73
2023-05-02T08:47:15.566Z,101312.52
2023-05-02T08:49:47.594Z,101308.63
2023-05-02T08:52:20.153Z,101303.61
2023-05-02T08:54:51.066Z,101304.31
2023-05-02T08:57:21.617Z,101293.59
2023-05-02T08:59:52.553Z,101299.10
2023-05-02T09:02:37.252Z,101290.83
2023-05-02T09:05:11.866Z,101293.11
2023-05-02T09:07:47.465Z,101289.40
2023-05-02T09:10:18.014Z,101287.56
2023-05-02T09:12:48.334Z,101292.84
2023-05-02T09:15:20.781Z,101288.84
2023-05-02T09:17:51.695Z,101293.25
2023-05-02T09:20:23.607Z,101281.09
2023-05-02T09:22:54.043Z,101281.16
2023-05-02T09:25:24.454Z,101286.08
2023-05-02T09:27:56.431Z,101283.16
2023-05-02T09:30:28.405Z,101286.73
2023-05-02T09:32:58.911Z,101288.70
2023-05-02T09:35:29.231Z,101284.93
2023-05-02T09:37:59.763Z,101278.97
2023-05-02T09:40:30.211Z,101278.99
2023-05-02T09:43:00.158Z,101279.00
2023-05-02T09:45:30.724Z,101284.16
2023-05-02T09:48:04.565Z,101275.50
2023-05-02T09:50:36.646Z,101273.61
2023-05-02T09:53:09.005Z,101270.89
2023-05-02T09:55:39.231Z,101279.84
2023-05-02T09:58:22.449Z,101270.59
2023-05-02T10:00:53.044Z,101260.80
2023-05-02T10:03:26.297Z,101267.86
2023-05-02T10:05:57.267Z,101274.37
2023-05-02T10:08:28.375Z,101261.30
2023-05-02T10:11:00.274Z,101255.05
2023-05-02T10:13:33.934Z,101259.10
2023-05-02T10:16:06.793Z,101255.83
2023-05-02T10:18:42.922Z,101248.76
2023-05-02T10:21:17.039Z,101250.39
2023-05-02T10:23:48.146Z,101247.42
2023-05-02T10:26:20.753Z,101255.58
2023-05-02T10:28:51.032Z,101247.13
2023-05-02T10:31:22.173Z,101238.70
2023-05-02T10:33:52.961Z,101238.42
2023-05-02T10:36:24.530Z,101240.33
2023-05-02T10:38:55.758Z,101241.41
2023-05-02T10:41:26.336Z,101236.77
2023-05-02T10:43:57.887Z,101235.67
2023-05-02T10:46:36.288Z,101240.30
2023-05-02T10:49:08.906Z,101228.31
2023-05-02T10:51:40.651Z,101234.27
2023-05-02T10:54:24.920Z,101233.98
2023-05-02T10:57:07.042Z,101235.88
2023-05-02T10:59:38.975Z,101240.20
2023-05-02T11:02:48.932Z,101228.19
2023-05-02T11:05:19.767Z,101243.41
2023-05-02T11:07:50.376Z,101246.09
2023-05-02T11:10:28.110Z,101233.81
2023-05-02T11:13:00.643Z,101227.23
2023-05-02T11:15:55.852Z,101246.60
2023-05-02T11:18:25.838Z,101232.98
2023-05-02T11:21:28.058Z,101237.87
2023-05-02T11:24:39.959Z,101230.52
2023-05-02T11:27:43.678Z,101234.88
2023-05-02T11:30:14.898Z,101236.50
2023-05-02T11:33:19.285Z,101237.33
2023-05-02T11:35:50.932Z,101226.67
2023-05-02T11:38:23.928Z,101228.30
2023-05-02T11:40:56.100Z,101226.94
2023-05-02T11:43:30.655Z,101221.16
2023-05-02T11:46:04.899Z,101221.11
2023-05-02T11:48:35.919Z,101231.18
2023-05-02T11:51:07.457Z,101221.34
2023-05-02T11:53:42.040Z,101221.56
2023-05-02T11:56:11.826Z,101219.41
2023-05-02T11:58:43.876Z,101211.75
2023-05-02T12:01:15.120Z,101213.39
2023-05-02T12:03:44.585Z,101210.44
2023-05-02T12:06:18.189Z,101210.97
2023-05-02T12:08:48.945Z,101213.66
2023-05-02T12:11:19.206Z,101204.67
2023-05-02T12:13:50.943Z,101212.28
2023-05-02T12:16:22.087Z,101200.77
2023-05-02T12:18:53.579Z,101205.59
2023-05-02T12:21:23.767Z,101188.66
2023-05-02T12:23:54.099Z,101197.06
2023-05-02T12:26:28.896Z,101197.59
2023-05-02T12:29:00.390Z,101201.15
2023-05-02T12:31:31.715Z,101194.34
2023-05-02T12:34:01.742Z,101183.44
2023-05-02T12:36:33.898Z,101185.06
2023-05-02T12:39:04.201Z,101181.76
2023-05-02T12:41:37.485Z,101173.86
2023-05-02T12:44:08.356Z,101171.66
2023-05-02T12:46:39.120Z,101177.11
2023-05-02T12:49:11.639Z,101169.52
2023-05-02T12:51:43.390Z,101165.95
2023-05-02T12:54:21.112Z,101158.30
2023-05-02T12:56:51.989Z,101165.16
2023-05-02T12:59:33.016Z,101156.16
2023-05-02T13:02:03.269Z,101157.22
2023-05-02T13:04:36.950Z,101157.22
2023-05-02T13:07:07.508Z,101159.70
2023-05-02T13:09:38.353Z,101155.87
2023-05-02T13:12:08.715Z,101149.59
2023-05-02T13:14:38.689Z,101149.34
2023-05-02T13:17:08.711Z,101145.52
2023-05-02T13:19:44.452Z,101143.59
2023-05-02T13:22:18.599Z,101135.98
2023-05-02T13:24:49.344Z,101140.64
2023-05-02T13:27:19.863Z,101137.91
2023-05-02T13:29:50.353Z,101136.51
2023-05-02T13:32:21.739Z,101135.71
2023-05-02T13:34:52.061Z,101124.03
2023-05-02T13:37:21.907Z,101122.66
2023-05-02T13:39:52.302Z,101116.10
2023-05-02T13:42:21.930Z,101124.80
2023-05-02T13:44:52.059Z,101125.08
2023-05-02T13:47:22.443Z,101123.23
2023-05-02T13:49:53.201Z,101120.78
2023-05-02T13:52:24.735Z,101120.26
2023-05-02T13:54:55.671Z,101116.73
2023-05-02T13:57:25.992Z,101112.38
2023-05-02T13:59:56.047Z,101114.06
2023-05-02T14:02:26.495Z,101104.27
2023-05-02T14:04:57.200Z,101111.39
2023-05-02T14:07:27.099Z,101108.94
2023-05-02T14:09:56.714Z,101116.11
2023-05-02T14:12:27.933Z,101107.16
2023-05-02T14:14:57.554Z,101102.80
2023-05-02T14:17:27.495Z,101101.76
2023-05-02T14:19:59.220Z,101097.13
2023-05-02T14:22:30.064Z,101102.63
2023-05-02T14:25:00.406Z,101104.05
2023-05-02T14:27:31.796Z,101104.66
2023-05-02T14:30:02.634Z,101091.61
2023-05-02T14:32:33.626Z,101089.42
2023-05-02T14:35:04.533Z,101091.61
2023-05-02T14:37:35.071Z,101091.36
2023-05-02T14:40:08.617Z,101083.27
2023-05-02T14:42:38.728Z,101091.22
2023-05-02T14:45:12.349Z,101089.62
2023-05-02T14:47:43.605Z,101082.33
2023-05-02T14:50:13.268Z,101084.22
2023-05-02T14:52:45.721Z,101076.09
2023-05-02T14:55:16.976Z,101078.28
2023-05-02T14:57:47.764Z,101078.81
2023-05-02T15:00:19.716Z,101075.83
2023-05-02T15:02:49.555Z,101083.73
2023-05-02T15:05:20.137Z,101071.25
2023-05-02T15:07:50.376Z,101074.53
2023-05-02T15:10:20.726Z,101074.03
2023-05-02T15:12:51.038Z,101086.05
2023-05-02T15:15:24.598Z,101084.72
2023-05-02T15:17:55.421Z,101084.47
2023-05-02T15:20:25.719Z,101079.62
2023-05-02T15:22:58.202Z,101082.36
2023-05-02T15:25:29.025Z,101080.76
2023-05-02T15:27:58.939Z,101084.59
2023-05-02T15:30:29.673Z,101083.52
2023-05-02T15:33:00.536Z,101080.82
2023-05-02T15:35:30.872Z,101083.58
2023-05-02T15:38:01.047Z,101083.61
2023-05-02T15:40:30.980Z,101079.80
2023-05-02T15:43:01.474Z,101080.89
2023-05-02T15:45:31.473Z,101077.11
2023-05-02T15:48:01.979Z,101081.77
2023-05-02T15:50:32.457Z,101077.97
2023-05-02T15:53:02.380Z,101075.27
2023-05-02T15:55:32.491Z,101076.35
2023-05-02T15:58:03.637Z,101077.69
2023-05-02T16:00:32.521Z,101083.92
2023-05-02T16:03:04.178Z,101090.69
2023-05-02T16:05:34.477Z,101084.70
2023-05-02T16:08:05.953Z,101089.05
2023-05-02T16:10:35.798Z,101087.41
2023-05-02T16:13:05.823Z,101084.67
2023-05-02T16:15:36.096Z,101077.86
2023-05-02T16:18:07.153Z,101081.39
2023-05-02T16:20:38.258Z,101072.94
2023-05-02T16:23:09.524Z,101074.83
2023-05-02T16:25:38.427Z,101075.00
2023-05-02T16:28:08.953Z,101077.95
2023-05-02T16:30:39.496Z,101085.77
2023-05-02T16:33:10.894Z,101091.96
2023-05-02T16:35:40.841Z,101101.39
2023-05-02T16:38:11.437Z,101093.20
2023-05-02T16:40:42.141Z,101095.84
2023-05-02T16:43:12.292Z,101090.63
2023-05-02T16:45:43.625Z,101102.20
2023-05-02T16:48:14.724Z,101100.80
2023-05-02T16:50:45.952Z,101099.38
2023-05-02T16:53:16.508Z,101102.55
2023-05-02T16:55:46.445Z,101108.95
2023-05-02T16:58:17.539Z,101104.27
2023-05-02T17:00:48.745Z,101111.46
2023-05-02T17:03:19.012Z,101113.77
2023-05-02T17:05:49.493Z,101116.84
2023-05-02T17:08:20.466Z,101116.16
2023-05-02T17:10:51.551Z,101120.05
2023-05-02T17:13:21.553Z,101132.30
2023-05-02T17:15:53.281Z,101146.48
2023-05-02T17:18:23.836Z,101140.94
2023-05-02T17:20:55.172Z,101142.42
2023-05-02T17:23:25.213Z,101148.97
2023-05-02T17:25:55.386Z,101144.48
2023-05-02T17:28:25.410Z,101144.32
2023-05-02T17:30:57.500Z,101146.86
2023-05-02T17:33:27.810Z,101152.08
2023-05-02T17:35:58.035Z,101149.44
2023-05-02T17:38:28.143Z,101160.53
2023-05-02T17:40:59.367Z,101165.16
2023-05-02T17:43:29.527Z,101174.34
2023-05-02T17:46:00.076Z,101176.01
2023-05-02T17:48:30.523Z,101182.03
2023-05-02T17:51:03.440Z,101181.82
2023-05-02T17:53:34.855Z,101189.69
2023-05-02T17:56:06.435Z,101193.44
2023-05-02T17:58:37.173Z,101194.27
2023-05-02T18:01:11.212Z,101207.29
2023-05-02T18:03:42.122Z,101208.33
2023-05-02T18:06:18.257Z,101216.13
2023-05-02T18:08:47.824Z,101201.61
2023-05-02T18:11:18.936Z,101220.20
2023-05-02T18:13:49.144Z,101218.06
2023-05-02T18:16:19.898Z,101225.88
2023-05-02T18:18:50.394Z,101226.20
2023-05-02T18:21:27.817Z,101232.95
2023-05-02T18:24:01.025Z,101241.55
2023-05-02T18:26:31.202Z,101238.58
2023-05-02T18:29:01.546Z,101249.61
2023-05-02T18:31:32.005Z,101244.78
2023-05-02T18:34:02.100Z,101238.86
2023-05-02T18:36:34.338Z,101248.27
2023-05-02T18:39:04.865Z,101244.03
2023-05-02T18:41:34.746Z,101248.86
2023-05-02T18:44:07.521Z,101246.26
2023-05-02T18:46:57.749Z,101253.56
2023-05-02T18:49:28.075Z,101245.19
2023-05-02T18:51:58.591Z,101241.73
2023-05-02T18:54:30.210Z,101247.39
2023-05-02T18:56:59.882Z,101242.06
2023-05-02T18:59:31.204Z,101240.48
2023-05-02T19:02:01.595Z,101232.67
2023-05-02T19:04:33.084Z,101234.79
2023-05-02T19:07:04.032Z,101243.95
2023-05-02T19:09:34.420Z,101239.45
2023-05-02T19:12:05.692Z,101237.02
2023-05-02T19:14:38.994Z,101234.59
2023-05-02T19:17:10.435Z,101227.61
2023-05-02T19:19:41.737Z,101229.74
2023-05-02T19:22:16.031Z,101227.31
2023-05-02T19:24:48.748Z,101235.61
2023-05-02T19:27:18.551Z,101238.53
2023-05-02T19:29:48.320Z,101243.91
2023-05-02T19:32:21.091Z,101247.44
2023-05-02T19:34:51.707Z,101256.33
2023-05-02T19:37:21.266Z,101252.81
2023-05-02T19:39:53.102Z,101254.27
2023-05-02T19:42:23.290Z,101256.95
2023-05-02T19:44:53.738Z,101256.76
2023-05-02T19:47:23.791Z,101263.98
2023-05-02T19:49:56.153Z,101258.66
2023-05-02T19:52:28.806Z,101261.95
2023-05-02T19:54:59.450Z,101262.58
2023-05-02T19:57:30.146Z,101269.58
2023-05-02T20:00:00.512Z,101271.87
2023-05-02T20:02:30.603Z,101278.86
2023-05-02T20:05:01.260Z,101282.98
2023-05-02T20:07:31.167Z,101279.06
2023-05-02T20:10:02.290Z,101276.18
2023-05-02T20:12:32.658Z,101271.88
2023-05-02T20:15:04.063Z,101271.66
2023-05-02T20:17:34.200Z,101278.02
2023-05-02T20:20:07.694Z,101285.03
2023-05-02T20:22:39.296Z,101287.28
2023-05-02T20:25:11.592Z,101284.39
2023-05-02T20:27:42.217Z,101293.04
2023-05-02T20:30:13.873Z,101287.25
2023-05-02T20:32:45.082Z,101287.84
2023-05-02T20:35:15.410Z,101284.11
2023-05-02T20:37:46.278Z,101294.41
2023-05-02T20:40:16.612Z,101295.21
2023-05-02T20:42:46.779Z,101292.31
2023-05-02T20:45:19.652Z,101290.44
2023-05-02T20:47:49.947Z,101285.05
2023-05-02T20:50:21.954Z,101282.38
2023-05-02T20:52:51.795Z,101288.30
2023-05-02T20:55:23.005Z,101288.08
2023-05-02T20:57:53.744Z,101289.89
2023-05-02T21:00:24.342Z,101290.89
2023-05-02T21:02:54.618Z,101293.34
2023-05-02T21:05:25.053Z,101293.91
2023-05-02T21:07:55.200Z,101286.69
2023-05-02T21:10:27.365Z,101290.77
2023-05-02T21:12:56.066Z,101293.42
2023-05-02T21:15:26.167Z,101291.32
2023-05-02T21:18:03.625Z,101291.92
2023-05-02T21:20:34.157Z,101295.16
2023-05-02T21:23:04.267Z,101291.44
2023-05-02T21:25:35.616Z,101291.20
2023-05-02T21:28:06.943Z,101305.12
2023-05-02T21:30:37.261Z,101297.04
2023-05-02T21:33:07.834Z,101294.30
2023-05-02T21:35:38.559Z,101293.03
2023-05-02T21:38:09.280Z,101296.27
2023-05-02T21:40:39.599Z,101289.87
2023-05-02T21:43:09.924Z,101292.28
2023-05-02T21:45:45.751Z,101290.38
2023-05-02T21:48:17.126Z,101296.28
2023-05-02T21:50:47.236Z,101301.37
2023-05-02T21:53:17.975Z,101298.44
2023-05-02T21:55:48.909Z,101303.52
2023-05-02T21:58:19.232Z,101311.09
2023-05-02T22:00:49.372Z,101308.17
2023-05-02T22:03:20.110Z,101314.05
2023-05-02T22:05:50.862Z,101307.65
2023-05-02T22:08:21.969Z,101311.06
2023-05-02T22:10:52.704Z,101315.30
2023-05-02T22:13:23.549Z,101318.53
2023-05-02T22:15:53.542Z,101313.95
2023-05-02T22:18:23.668Z,101320.84
2023-05-02T22:20:56.820Z,101325.91
2023-05-02T22:23:27.371Z,101325.36
2023-05-02T22:25:58.926Z,101328.69
2023-05-02T22:28:29.457Z,101330.80
2023-05-02T22:30:59.579Z,101326.06
2023-05-02T22:33:30.510Z,101330.66
2023-05-02T22:36:01.242Z,101338.53
2023-05-02T22:38:31.977Z,101331.47
2023-05-02T22:41:05.991Z,101339.17
2023-05-02T22:43:36.925Z,101337.23
2023-05-02T22:46:07.485Z,101333.44
2023-05-02T22:48:38.185Z,101338.66
2023-05-02T22:51:08.916Z,101331.20
2023-05-02T22:53:40.096Z,101333.77
2023-05-02T22:56:10.997Z,101329.80
2023-05-02T22:58:41.122Z,101328.67
2023-05-02T23:01:11.677Z,101320.39
2023-05-02T23:03:43.595Z,101310.46
2023-05-02T23:06:13.963Z,101313.67
2023-05-02T23:08:45.068Z,101306.40
2023-05-02T23:11:16.207Z,101303.44
2023-05-02T23:13:46.936Z,101298.63
2023-05-02T23:16:17.925Z,101298.33
2023-05-02T23:18:49.423Z,101291.06
2023-05-02T23:21:20.374Z,101286.29
2023-05-02T23:23:50.682Z,101289.45
2023-05-02T23:26:21.620Z,101297.13
2023-05-02T23:28:52.152Z,101299.64
2023-05-02T23:31:22.321Z,101296.52
2023-05-02T23:33:53.618Z,101297.87
2023-05-02T23:36:23.941Z,101294.56
2023-05-02T23:38:54.667Z,101294.25
2023-05-02T23:41:26.017Z,101296.56
2023-05-02T23:43:56.546Z,101294.26
2023-05-02T23:46:27.716Z,101291.95
2023-05-02T23:48:58.622Z,101294.77
2023-05-02T23:51:31.627Z,101298.77
2023-05-02T23:54:02.146Z,101298.30
2023-05-02T23:56:32.869Z,101296.80
2023-05-02T23:59:03.595Z,101293.67
